createdAt,value
2019-03-10T00:02:37.232Z,92344.05
2019-03-10T00:05:25.282Z,92344.12
2019-03-10T00:08:13.439Z,92346.17
2019-03-10T00:11:01.793Z,92346.70
2019-03-10T00:13:50.169Z,92351.49
2019-03-10T00:16:38.147Z,92343.23
2019-03-10T00:19:26.526Z,92353.58
2019-03-10T00:22:15.130Z,92339.95
2019-03-10T00:25:02.948Z,92329.47
2019-03-10T00:27:50.981Z,92326.21
2019-03-10T00:30:38.708Z,92326.00
2019-03-10T00:33:26.417Z,92321.72
2019-03-10T00:36:14.904Z,92316.18
2019-03-10T00:39:07.263Z,92321.45
2019-03-10T00:42:13.629Z,92326.77
2019-03-10T00:45:19.568Z,92339.11
2019-03-10T00:48:39.025Z,92333.13
2019-03-10T00:51:44.548Z,92326.20
2019-03-10T00:54:33.453Z,92309.45
2019-03-10T00:57:21.520Z,92303.42
2019-03-10T01:00:15.442Z,92306.27
2019-03-10T01:03:03.411Z,92315.45
2019-03-10T01:05:51.880Z,92312.43
2019-03-10T01:08:39.686Z,92310.78
2019-03-10T01:11:28.221Z,92307.31
2019-03-10T01:14:15.889Z,92311.37
2019-03-10T01:17:03.883Z,92309.77
2019-03-10T01:19:52.424Z,92317.02
2019-03-10T01:22:40.312Z,92320.36
2019-03-10T01:25:28.154Z,92322.62
2019-03-10T01:28:16.540Z,92325.80
2019-03-10T01:31:17.433Z,92326.55
2019-03-10T01:34:40.176Z,92322.02
2019-03-10T01:37:27.674Z,92322.59
2019-03-10T01:40:15.506Z,92320.22
2019-03-10T01:43:02.928Z,92323.17
2019-03-10T01:45:51.241Z,92313.88
2019-03-10T01:48:39.582Z,92322.58
2019-03-10T01:51:28.012Z,92317.28
2019-03-10T01:54:16.068Z,92318.00
2019-03-10T01:57:05.650Z,92309.39
2019-03-10T01:59:54.165Z,92300.21
2019-03-10T02:02:41.678Z,92297.37
2019-03-10T02:05:29.780Z,92295.94
2019-03-10T02:08:18.245Z,92290.55
2019-03-10T02:11:06.637Z,92284.47
2019-03-10T02:13:54.677Z,92283.92
2019-03-10T02:16:43.067Z,92284.66
2019-03-10T02:19:31.060Z,92282.33
2019-03-10T02:22:19.802Z,92287.23
2019-03-10T02:25:08.326Z,92285.63
2019-03-10T02:27:56.744Z,92280.78
2019-03-10T02:30:44.791Z,92283.03
2019-03-10T02:33:32.775Z,92281.31
2019-03-10T02:36:20.987Z,92282.84
2019-03-10T02:39:09.411Z,92283.25
2019-03-10T02:41:57.503Z,92298.38
2019-03-10T02:44:45.699Z,92294.19
2019-03-10T02:47:33.936Z,92295.30
2019-03-10T02:50:21.950Z,92301.90
2019-03-10T02:53:10.408Z,92299.77
2019-03-10T02:55:58.301Z,92301.44
2019-03-10T02:58:47.492Z,92314.16
2019-03-10T03:01:35.635Z,92325.27
2019-03-10T03:04:23.623Z,92318.06
2019-03-10T03:07:11.773Z,92298.27
2019-03-10T03:09:59.539Z,92293.07
2019-03-10T03:12:47.839Z,92277.64
2019-03-10T03:15:35.604Z,92269.25
2019-03-10T03:18:23.650Z,92279.48
2019-03-10T03:21:12.125Z,92265.59
2019-03-10T03:24:00.633Z,92275.39
2019-03-10T03:26:49.015Z,92272.63
2019-03-10T03:29:37.396Z,92270.80
2019-03-10T03:32:25.489Z,92276.64
2019-03-10T03:35:31.912Z,92279.83
2019-03-10T03:38:22.051Z,92276.11
2019-03-10T03:41:11.184Z,92295.95
2019-03-10T03:43:58.953Z,92279.66
2019-03-10T03:46:47.118Z,92291.03
2019-03-10T03:49:34.952Z,92285.31
2019-03-10T03:52:23.448Z,92290.24
2019-03-10T03:55:11.639Z,92288.25
2019-03-10T03:57:59.680Z,92292.11
2019-03-10T04:00:52.853Z,92305.27
2019-03-10T04:03:40.300Z,92308.84
2019-03-10T04:06:28.463Z,92315.27
2019-03-10T04:09:16.745Z,92315.91
2019-03-10T04:12:05.194Z,92304.34
2019-03-10T04:14:52.672Z,92305.88
2019-03-10T04:17:41.214Z,92301.01
2019-03-10T04:20:29.163Z,92289.84
2019-03-10T04:23:16.915Z,92285.48
2019-03-10T04:26:05.249Z,92292.44
2019-03-10T04:28:53.130Z,92278.61
2019-03-10T04:31:41.433Z,92286.80
2019-03-10T04:34:29.837Z,92290.69
2019-03-10T04:37:18.202Z,92303.34
2019-03-10T04:40:06.968Z,92312.11
2019-03-10T04:42:55.442Z,92305.23
2019-03-10T04:45:43.892Z,92292.16
2019-03-10T04:48:31.987Z,92298.28
2019-03-10T04:51:20.851Z,92290.58
2019-03-10T04:54:09.046Z,92297.30
2019-03-10T04:57:06.393Z,92295.70
2019-03-10T04:59:54.240Z,92293.66
2019-03-10T05:02:44.015Z,92305.53
2019-03-10T05:05:32.117Z,92309.15
2019-03-10T05:08:20.155Z,92323.35
2019-03-10T05:11:08.062Z,92324.83
2019-03-10T05:13:56.281Z,92328.04
2019-03-10T05:16:44.780Z,92338.11
2019-03-10T05:19:32.976Z,92334.57
2019-03-10T05:22:21.354Z,92339.81
2019-03-10T05:25:09.442Z,92336.66
2019-03-10T05:27:57.864Z,92335.11
2019-03-10T05:30:46.307Z,92327.02
2019-03-10T05:33:34.353Z,92327.91
2019-03-10T05:36:22.828Z,92321.23
2019-03-10T05:39:11.122Z,92322.00
2019-03-10T05:41:59.232Z,92322.00
2019-03-10T05:44:50.429Z,92327.30
2019-03-10T05:47:38.784Z,92330.11
2019-03-10T05:50:26.925Z,92329.40
2019-03-10T05:53:15.430Z,92331.54
2019-03-10T05:56:03.571Z,92333.28
2019-03-10T05:58:51.777Z,92338.36
2019-03-10T06:01:39.510Z,92347.81
2019-03-10T06:04:29.228Z,92340.67
2019-03-10T06:07:17.853Z,92338.34
2019-03-10T06:10:07.118Z,92345.22
2019-03-10T06:12:56.357Z,92328.22
2019-03-10T06:15:45.630Z,92333.98
2019-03-10T06:18:34.830Z,92341.08
2019-03-10T06:21:24.255Z,92328.28
2019-03-10T06:24:13.951Z,92332.13
2019-03-10T06:27:03.210Z,92339.53
2019-03-10T06:29:51.464Z,92328.13
2019-03-10T06:32:39.177Z,92345.50
2019-03-10T06:35:27.648Z,92341.16
2019-03-10T06:38:16.194Z,92354.08
2019-03-10T06:41:05.619Z,92352.58
2019-03-10T06:43:55.498Z,92357.05
2019-03-10T06:46:44.258Z,92356.48
2019-03-10T06:49:33.285Z,92350.31
2019-03-10T06:52:22.740Z,92360.18
2019-03-10T06:55:12.211Z,92349.59
2019-03-10T06:58:02.012Z,92357.55
2019-03-10T07:00:51.356Z,92366.14
2019-03-10T07:03:40.448Z,92362.88
2019-03-10T07:06:30.594Z,92374.02
2019-03-10T07:09:19.923Z,92378.85
2019-03-10T07:12:10.443Z,92385.81
2019-03-10T07:15:00.212Z,92383.43
2019-03-10T07:17:49.431Z,92391.23
2019-03-10T07:20:38.784Z,92379.07
2019-03-10T07:23:28.301Z,92387.97
2019-03-10T07:26:17.755Z,92384.03
2019-03-10T07:29:29.164Z,92390.70
2019-03-10T07:32:37.294Z,92393.84
2019-03-10T07:35:44.171Z,92388.44
2019-03-10T07:38:40.967Z,92386.87
2019-03-10T07:41:48.358Z,92395.47
2019-03-10T07:45:14.971Z,92381.13
2019-03-10T07:48:25.869Z,92383.26
2019-03-10T07:51:31.121Z,92391.28
2019-03-10T07:54:38.156Z,92387.86
2019-03-10T07:57:43.700Z,92399.61
2019-03-10T08:00:51.757Z,92409.13
2019-03-10T08:03:55.197Z,92422.60
2019-03-10T08:06:51.151Z,92433.06
2019-03-10T08:10:12.175Z,92445.08
2019-03-10T08:13:14.164Z,92446.17
2019-03-10T08:16:28.553Z,92440.27
2019-03-10T08:19:42.797Z,92438.92
2019-03-10T08:23:02.709Z,92429.89
2019-03-10T08:26:00.808Z,92436.62
2019-03-10T08:29:12.124Z,92434.55
2019-03-10T08:32:20.913Z,92424.95
2019-03-10T08:35:32.151Z,92430.91
2019-03-10T08:38:43.229Z,92429.31
2019-03-10T08:42:00.212Z,92426.66
2019-03-10T08:45:03.975Z,92420.55
2019-03-10T08:48:16.784Z,92422.51
2019-03-10T08:51:24.644Z,92419.89
2019-03-10T08:54:18.703Z,92415.73
2019-03-10T08:57:25.330Z,92412.68
2019-03-10T09:00:37.830Z,92409.46
2019-03-10T09:03:55.102Z,92421.43
2019-03-10T09:07:03.548Z,92419.64
2019-03-10T09:10:17.954Z,92419.45
2019-03-10T09:13:31.562Z,92405.00
2019-03-10T09:16:43.595Z,92401.72
2019-03-10T09:19:52.110Z,92388.78
2019-03-10T09:22:53.091Z,92391.06
2019-03-10T09:25:56.292Z,92385.03
2019-03-10T09:29:02.911Z,92387.37
2019-03-10T09:32:16.833Z,92389.21
2019-03-10T09:35:20.175Z,92385.18
2019-03-10T09:38:19.749Z,92393.30
2019-03-10T09:41:21.550Z,92391.97
2019-03-10T09:44:28.352Z,92391.38
2019-03-10T09:47:29.276Z,92391.79
2019-03-10T09:50:43.632Z,92393.30
2019-03-10T09:53:58.093Z,92383.59
2019-03-10T09:57:03.405Z,92392.91
2019-03-10T10:00:13.899Z,92385.78
2019-03-10T10:03:11.526Z,92379.02
2019-03-10T10:06:18.753Z,92378.73
2019-03-10T10:09:45.822Z,92370.51
2019-03-10T10:12:46.353Z,92371.10
2019-03-10T10:15:53.699Z,92365.67
2019-03-10T10:19:05.003Z,92354.92
2019-03-10T10:22:13.885Z,92349.98
2019-03-10T10:25:17.378Z,92338.58
2019-03-10T10:28:15.355Z,92333.43
2019-03-10T10:31:15.272Z,92335.77
2019-03-10T10:34:23.281Z,92320.55
2019-03-10T10:37:40.403Z,92320.86
2019-03-10T10:40:48.279Z,92315.31
2019-03-10T10:44:05.866Z,92305.97
2019-03-10T10:47:06.639Z,92299.45
2019-03-10T10:50:23.968Z,92290.61
2019-03-10T10:53:25.954Z,92286.00
2019-03-10T10:56:32.366Z,92288.55
2019-03-10T10:59:40.526Z,92277.18
2019-03-10T11:02:38.954Z,92275.06
2019-03-10T11:05:35.559Z,92266.94
2019-03-10T11:08:38.442Z,92267.42
2019-03-10T11:11:45.599Z,92269.88
2019-03-10T11:14:57.039Z,92271.22
2019-03-10T11:18:17.219Z,92273.70
2019-03-10T11:21:21.311Z,92266.59
2019-03-10T11:24:26.375Z,92272.80
2019-03-10T11:27:27.408Z,92280.44
2019-03-10T11:30:41.896Z,92287.48
2019-03-10T11:33:49.093Z,92287.82
2019-03-10T11:37:04.561Z,92286.75
2019-03-10T11:40:03.371Z,92272.77
2019-03-10T11:43:10.061Z,92272.28
2019-03-10T11:46:29.889Z,92259.14
2019-03-10T11:49:36.798Z,92246.14
2019-03-10T11:52:44.794Z,92246.69
2019-03-10T11:55:53.843Z,92244.88
2019-03-10T11:58:57.394Z,92242.37
2019-03-10T12:02:15.996Z,92238.50
2019-03-10T12:05:18.422Z,92232.02
2019-03-10T12:08:32.150Z,92215.20
2019-03-10T12:11:20.940Z,92203.89
2019-03-10T12:14:10.189Z,92196.87
2019-03-10T12:16:59.473Z,92188.02
2019-03-10T12:19:48.794Z,92189.50
2019-03-10T12:22:38.200Z,92180.21
2019-03-10T12:25:28.771Z,92179.33
2019-03-10T12:28:18.146Z,92176.55
2019-03-10T12:31:07.574Z,92171.52
2019-03-10T12:33:56.953Z,92168.08
2019-03-10T12:36:46.337Z,92173.70
2019-03-10T12:39:36.044Z,92167.67
2019-03-10T12:42:25.541Z,92168.45
2019-03-10T12:45:14.802Z,92169.69
2019-03-10T12:48:04.239Z,92173.44
2019-03-10T12:50:53.799Z,92165.65
2019-03-10T12:53:42.977Z,92160.94
2019-03-10T12:56:32.544Z,92164.05
2019-03-10T12:59:21.805Z,92162.03
2019-03-10T13:02:11.301Z,92167.39
2019-03-10T13:05:00.748Z,92161.74
2019-03-10T13:07:50.092Z,92151.53
2019-03-10T13:10:39.308Z,92151.02
2019-03-10T13:13:28.954Z,92155.56
2019-03-10T13:16:17.785Z,92143.53
2019-03-10T13:19:06.876Z,92144.50
2019-03-10T13:21:56.117Z,92138.81
2019-03-10T13:24:45.611Z,92144.77
2019-03-10T13:27:34.984Z,92117.98
2019-03-10T13:30:23.772Z,92116.88
2019-03-10T13:33:12.819Z,92120.24
2019-03-10T13:36:02.141Z,92115.18
2019-03-10T13:38:51.526Z,92120.89
2019-03-10T13:41:40.923Z,92123.05
2019-03-10T13:44:30.381Z,92117.61
2019-03-10T13:47:19.885Z,92117.47
2019-03-10T13:50:10.843Z,92117.97
2019-03-10T13:53:00.124Z,92117.53
2019-03-10T13:55:49.326Z,92106.12
2019-03-10T13:58:39.020Z,92095.77
2019-03-10T14:01:28.308Z,92095.63
2019-03-10T14:04:17.343Z,92084.79
2019-03-10T14:07:06.892Z,92079.84
2019-03-10T14:09:56.699Z,92084.71
2019-03-10T14:12:46.133Z,92079.87
2019-03-10T14:15:35.447Z,92077.14
2019-03-10T14:18:24.867Z,92071.80
2019-03-10T14:21:13.681Z,92064.56
2019-03-10T14:24:02.897Z,92054.65
2019-03-10T14:26:52.202Z,92051.70
2019-03-10T14:29:42.622Z,92050.63
2019-03-10T14:32:32.243Z,92049.02
2019-03-10T14:35:21.624Z,92050.89
2019-03-10T14:38:10.951Z,92054.27
2019-03-10T14:41:00.372Z,92045.14
2019-03-10T14:43:49.627Z,92047.74
2019-03-10T14:46:38.899Z,92047.94
2019-03-10T14:49:28.157Z,92038.05
2019-03-10T14:52:17.125Z,92043.95
2019-03-10T14:55:07.281Z,92034.04
2019-03-10T14:57:56.813Z,92030.97
2019-03-10T15:00:45.657Z,92041.45
2019-03-10T15:03:34.996Z,92034.46
2019-03-10T15:06:32.233Z,92033.33
2019-03-10T15:09:21.829Z,92034.33
2019-03-10T15:12:11.451Z,92028.30
2019-03-10T15:15:00.968Z,92030.44
2019-03-10T15:17:50.334Z,92028.80
2019-03-10T15:20:39.891Z,92021.45
2019-03-10T15:23:29.605Z,92015.98
2019-03-10T15:26:19.098Z,92012.16
2019-03-10T15:29:08.696Z,92005.30
2019-03-10T15:31:57.997Z,92004.20
2019-03-10T15:34:46.875Z,92013.34
2019-03-10T15:37:36.332Z,92013.80
2019-03-10T15:40:26.197Z,92015.88
2019-03-10T15:43:17.108Z,92021.41
2019-03-10T15:46:10.135Z,92012.92
2019-03-10T15:48:59.706Z,92016.88
2019-03-10T15:51:48.570Z,92013.45
2019-03-10T15:54:37.831Z,92026.67
2019-03-10T15:57:27.179Z,92018.52
2019-03-10T16:00:18.080Z,92020.45
2019-03-10T16:03:07.144Z,92016.67
2019-03-10T16:05:56.630Z,92022.70
2019-03-10T16:08:45.669Z,92016.08
2019-03-10T16:11:35.237Z,92017.97
2019-03-10T16:14:24.562Z,92008.77
2019-03-10T16:17:13.834Z,92011.25
2019-03-10T16:20:02.935Z,92018.54
2019-03-10T16:22:52.243Z,92018.65
2019-03-10T16:25:41.452Z,92017.25
2019-03-10T16:28:31.013Z,92010.44
2019-03-10T16:31:20.348Z,92018.61
2019-03-10T16:34:09.574Z,92017.55
2019-03-10T16:37:02.233Z,92013.09
2019-03-10T16:39:50.847Z,92009.42
2019-03-10T16:42:40.113Z,92000.98
2019-03-10T16:45:29.404Z,91998.56
2019-03-10T16:48:17.427Z,91999.64
2019-03-10T16:51:05.840Z,91997.79
2019-03-10T16:53:54.243Z,92001.45
2019-03-10T16:56:42.120Z,92001.66
2019-03-10T16:59:34.387Z,91997.50
2019-03-10T17:02:26.703Z,91987.98
2019-03-10T17:05:15.911Z,91981.02
2019-03-10T17:08:04.451Z,91988.66
2019-03-10T17:10:53.556Z,91980.09
2019-03-10T17:13:42.885Z,91985.20
2019-03-10T17:16:32.815Z,91987.41
2019-03-10T17:19:22.504Z,91988.02
2019-03-10T17:22:11.145Z,91974.02
2019-03-10T17:24:59.500Z,91973.18
2019-03-10T17:27:47.962Z,91974.86
2019-03-10T17:30:36.340Z,91974.31
2019-03-10T17:33:24.512Z,91975.56
2019-03-10T17:36:12.939Z,91980.34
2019-03-10T17:39:00.679Z,91969.22
2019-03-10T17:41:48.689Z,91964.70
2019-03-10T17:44:41.107Z,91957.20
2019-03-10T17:47:27.341Z,91959.03
2019-03-10T17:50:15.179Z,91962.31
2019-03-10T17:53:02.684Z,91954.04
2019-03-10T17:55:52.127Z,91958.77
2019-03-10T17:58:40.239Z,91967.81
2019-03-10T18:01:27.727Z,91975.30
2019-03-10T18:04:15.804Z,91978.08
2019-03-10T18:07:04.161Z,91975.30
2019-03-10T18:09:52.283Z,91976.38
2019-03-10T18:12:40.070Z,91978.28
2019-03-10T18:15:28.216Z,91977.08
2019-03-10T18:18:15.932Z,91973.05
2019-03-10T18:21:04.129Z,91969.08
2019-03-10T18:23:52.238Z,91964.14
2019-03-10T18:26:40.627Z,91961.16
2019-03-10T18:29:28.409Z,91953.41
2019-03-10T18:32:16.962Z,91955.30
2019-03-10T18:35:05.452Z,91942.19
2019-03-10T18:37:58.861Z,91932.70
2019-03-10T18:40:47.455Z,91939.15
2019-03-10T18:43:35.831Z,91946.45
2019-03-10T18:46:23.559Z,91939.38
2019-03-10T18:49:12.954Z,91933.29
2019-03-10T18:52:00.802Z,91927.91
2019-03-10T18:54:48.941Z,91927.91
2019-03-10T18:57:37.507Z,91937.12
2019-03-10T19:00:25.787Z,91945.53
2019-03-10T19:03:14.206Z,91945.05
2019-03-10T19:06:02.281Z,91934.57
2019-03-10T19:08:50.337Z,91921.00
2019-03-10T19:11:38.868Z,91921.45
2019-03-10T19:14:26.990Z,91919.48
2019-03-10T19:17:15.447Z,91919.09
2019-03-10T19:20:03.934Z,91922.80
2019-03-10T19:22:52.284Z,91911.83
2019-03-10T19:25:40.668Z,91917.42
2019-03-10T19:28:28.670Z,91920.36
2019-03-10T19:31:17.111Z,91911.11
2019-03-10T19:34:05.687Z,91906.39
2019-03-10T19:36:57.278Z,91903.31
2019-03-10T19:39:42.858Z,91912.06
2019-03-10T19:42:31.239Z,91909.27
2019-03-10T19:45:20.256Z,91901.13
2019-03-10T19:48:08.502Z,91897.45
2019-03-10T19:50:56.819Z,91900.38
2019-03-10T19:53:45.165Z,91905.65
2019-03-10T19:56:33.189Z,91901.66
2019-03-10T19:59:21.837Z,91904.34
2019-03-10T20:02:10.378Z,91891.03
2019-03-10T20:04:59.036Z,91889.92
2019-03-10T20:07:48.195Z,91893.10
2019-03-10T20:10:36.257Z,91901.56
2019-03-10T20:13:24.628Z,91905.48
2019-03-10T20:16:12.841Z,91895.64
2019-03-10T20:19:01.223Z,91897.91
2019-03-10T20:21:52.972Z,91902.55
2019-03-10T20:24:41.256Z,91896.88
2019-03-10T20:27:29.340Z,91899.96
2019-03-10T20:30:19.342Z,91901.66
2019-03-10T20:33:10.961Z,91889.84
2019-03-10T20:35:59.061Z,91912.23
2019-03-10T20:38:47.815Z,91926.98
2019-03-10T20:41:35.807Z,91901.51
2019-03-10T20:44:23.781Z,91898.03
2019-03-10T20:47:14.531Z,91896.80
2019-03-10T20:50:10.059Z,91908.81
2019-03-10T20:52:57.760Z,91905.34
2019-03-10T20:55:48.283Z,91905.70
2019-03-10T20:58:35.948Z,91904.30
2019-03-10T21:01:24.217Z,91904.33
2019-03-10T21:04:12.454Z,91913.66
2019-03-10T21:07:00.596Z,91913.12
2019-03-10T21:09:48.889Z,91907.05
2019-03-10T21:12:41.836Z,91899.11
2019-03-10T21:15:26.797Z,91899.45
2019-03-10T21:18:15.331Z,91901.49
2019-03-10T21:21:05.518Z,91895.03
2019-03-10T21:23:55.302Z,91901.23
2019-03-10T21:26:42.870Z,91888.80
2019-03-10T21:29:31.135Z,91887.48
2019-03-10T21:32:19.260Z,91891.55
2019-03-10T21:35:17.225Z,91886.23
2019-03-10T21:37:56.864Z,91879.55
2019-03-10T21:40:44.495Z,91887.29
2019-03-10T21:43:32.930Z,91866.76
2019-03-10T21:46:20.590Z,91857.26
2019-03-10T21:49:08.385Z,91861.25
2019-03-10T21:51:56.146Z,91857.95
2019-03-10T21:54:44.570Z,91850.76
2019-03-10T21:57:34.992Z,91847.20
2019-03-10T22:00:22.778Z,91856.47
2019-03-10T22:03:10.489Z,91853.66
2019-03-10T22:05:58.479Z,91840.33
2019-03-10T22:08:46.604Z,91845.62
2019-03-10T22:11:34.181Z,91836.31
2019-03-10T22:14:22.676Z,91836.80
2019-03-10T22:17:11.013Z,91846.48
2019-03-10T22:19:58.700Z,91834.97
2019-03-10T22:22:49.543Z,91825.88
2019-03-10T22:25:37.066Z,91824.13
2019-03-10T22:28:25.431Z,91824.13
2019-03-10T22:31:13.479Z,91829.02
2019-03-10T22:34:01.554Z,91828.39
2019-03-10T22:36:52.194Z,91819.91
2019-03-10T22:39:40.506Z,91822.37
2019-03-10T22:42:29.208Z,91822.31
2019-03-10T22:45:17.418Z,91829.34
2019-03-10T22:48:06.770Z,91824.45
2019-03-10T22:50:54.908Z,91816.38
2019-03-10T22:53:42.911Z,91822.95
2019-03-10T22:56:31.231Z,91836.02
2019-03-10T22:59:21.422Z,91823.00
2019-03-10T23:02:09.639Z,91826.36
2019-03-10T23:04:57.517Z,91835.67
2019-03-10T23:07:46.109Z,91837.03
2019-03-10T23:10:34.420Z,91846.63
2019-03-10T23:13:24.728Z,91832.95
2019-03-10T23:16:12.707Z,91842.02
2019-03-10T23:19:00.579Z,91836.28
2019-03-10T23:21:48.932Z,91828.36
2019-03-10T23:24:37.219Z,91837.96
2019-03-10T23:27:25.354Z,91831.20
2019-03-10T23:30:14.067Z,91830.78
2019-03-10T23:33:02.713Z,91841.47
2019-03-10T23:35:51.073Z,91827.63
2019-03-10T23:38:39.485Z,91821.27
2019-03-10T23:41:27.107Z,91821.19
2019-03-10T23:44:15.780Z,91818.30
2019-03-10T23:47:03.819Z,91825.89
2019-03-10T23:49:52.239Z,91819.05
2019-03-10T23:52:40.627Z,91822.79
2019-03-10T23:55:28.860Z,91818.06
2019-03-10T23:58:16.868Z,91824.87
